sensor_id;sensor_type;location;lat;lon;timestamp;pressure;altitude;pressure_sealevel;temperature;humidity
19108;BME280;9686;48.832;9.126;2023-02-12T00:00:30;100107.72;;;10.13;89.53
19108;BME280;9686;48.832;9.126;2023-02-12T00:02:55;100112.00;;;10.11;90.26
19108;BME280;9686;48.832;9.126;2023-02-12T00:05:20;100112.38;;;9.92;95.29
19108;BME280;9686;48.832;9.126;2023-02-12T00:07:46;100108.63;;;9.82;96.17
19108;BME280;9686;48.832;9.126;2023-02-12T00:10:11;100114.47;;;9.73;97.27
19108;BME280;9686;48.832;9.126;2023-02-12T00:12:37;100113.50;;;9.70;98.66
19108;BME280;9686;48.832;9.126;2023-02-12T00:15:03;100114.34;;;9.69;97.68
19108;BME280;9686;48.832;9.126;2023-02-12T00:17:28;100116.53;;;9.55;100.00
19108;BME280;9686;48.832;9.126;2023-02-12T00:19:53;100110.84;;;9.68;98.31
19108;BME280;9686;48.832;9.126;2023-02-12T00:22:19;100114.06;;;9.59;97.70
19108;BME280;9686;48.832;9.126;2023-02-12T00:24:44;100122.50;;;9.51;100.00
19108;BME280;9686;48.832;9.126;2023-02-12T00:27:09;100121.47;;;9.46;100.00
19108;BME280;9686;48.832;9.126;2023-02-12T00:29:36;100127.00;;;9.56;98.58
19108;BME280;9686;48.832;9.126;2023-02-12T00:32:01;100127.84;;;9.55;99.50
19108;BME280;9686;48.832;9.126;2023-02-12T00:34:26;100120.78;;;9.51;100.00
19108;BME280;9686;48.832;9.126;2023-02-12T00:36:52;100118.91;;;9.77;96.75
19108;BME280;9686;48.832;9.126;2023-02-12T00:39:17;100133.03;;;9.55;97.41
19108;BME280;9686;48.832;9.126;2023-02-12T00:41:42;100124.09;;;9.46;100.00
19108;BME280;9686;48.832;9.126;2023-02-12T00:44:07;100133.19;;;9.62;97.90
19108;BME280;9686;48.832;9.126;2023-02-12T00:46:33;100137.16;;;9.77;95.65
19108;BME280;9686;48.832;9.126;2023-02-12T00:48:58;100143.09;;;9.73;95.63
19108;BME280;9686;48.832;9.126;2023-02-12T00:51:23;100139.31;;;9.34;99.69
19108;BME280;9686;48.832;9.126;2023-02-12T00:53:49;100137.44;;;9.28;100.00
19108;BME280;9686;48.832;9.126;2023-02-12T00:56:14;100144.69;;;9.38;100.00
19108;BME280;9686;48.832;9.126;2023-02-12T00:58:39;100139.50;;;9.38;100.00
19108;BME280;9686;48.832;9.126;2023-02-12T01:01:05;100144.44;;;9.31;100.00
19108;BME280;9686;48.832;9.126;2023-02-12T01:03:30;100138.66;;;9.39;100.00
19108;BME280;9686;48.832;9.126;2023-02-12T01:05:55;100133.44;;;9.39;100.00
19108;BME280;9686;48.832;9.126;2023-02-12T01:08:21;100134.41;;;9.43;100.00
19108;BME280;9686;48.832;9.126;2023-02-12T01:10:54;100128.66;;;9.54;100.00
19108;BME280;9686;48.832;9.126;2023-02-12T01:13:20;100125.59;;;9.68;98.26
19108;BME280;9686;48.832;9.126;2023-02-12T01:15:45;100122.03;;;9.64;98.49
19108;BME280;9686;48.832;9.126;2023-02-12T01:18:10;100130.00;;;9.70;96.85
19108;BME280;9686;48.832;9.126;2023-02-12T01:20:38;100133.19;;;9.62;98.34
19108;BME280;9686;48.832;9.126;2023-02-12T01:23:04;100138.94;;;9.50;100.00
19108;BME280;9686;48.832;9.126;2023-02-12T01:25:31;100134.47;;;9.44;100.00
19108;BME280;9686;48.832;9.126;2023-02-12T01:27:56;100134.53;;;9.47;100.00
19108;BME280;9686;48.832;9.126;2023-02-12T01:30:21;100136.59;;;9.29;100.00
19108;BME280;9686;48.832;9.126;2023-02-12T01:32:48;100126.44;;;9.67;99.64
19108;BME280;9686;48.832;9.126;2023-02-12T01:35:13;100133.78;;;9.81;97.15
19108;BME280;9686;48.832;9.126;2023-02-12T01:37:39;100132.81;;;9.78;96.28
19108;BME280;9686;48.832;9.126;2023-02-12T01:40:07;100127.88;;;9.57;99.05
19108;BME280;9686;48.832;9.126;2023-02-12T01:42:33;100135.88;;;9.63;99.34
19108;BME280;9686;48.832;9.126;2023-02-12T01:47:40;100127.53;;;9.45;100.00
19108;BME280;9686;48.832;9.126;2023-02-12T01:50:10;100124.19;;;9.49;100.00
19108;BME280;9686;48.832;9.126;2023-02-12T01:52:39;100118.53;;;9.64;100.00
19108;BME280;9686;48.832;9.126;2023-02-12T01:55:08;100126.44;;;9.67;100.00
19108;BME280;9686;48.832;9.126;2023-02-12T01:57:37;100124.94;;;9.45;100.00
19108;BME280;9686;48.832;9.126;2023-02-12T02:00:07;100122.09;;;9.67;100.00
19108;BME280;9686;48.832;9.126;2023-02-12T02:02:33;100121.06;;;9.62;98.91
19108;BME280;9686;48.832;9.126;2023-02-12T02:05:03;100120.59;;;9.45;100.00
19108;BME280;9686;48.832;9.126;2023-02-12T02:07:29;100124.66;;;9.66;100.00
19108;BME280;9686;48.832;9.126;2023-02-12T02:09:55;100123.41;;;9.53;100.00
19108;BME280;9686;48.832;9.126;2023-02-12T02:12:21;100123.59;;;9.59;99.93
19108;BME280;9686;48.832;9.126;2023-02-12T02:15:06;100123.91;;;9.70;98.18
19108;BME280;9686;48.832;9.126;2023-02-12T02:18:01;100117.66;;;9.63;97.53
19108;BME280;9686;48.832;9.126;2023-02-12T02:20:48;100110.59;;;9.61;100.00
19108;BME280;9686;48.832;9.126;2023-02-12T02:26:31;100109.81;;;9.93;95.36
19108;BME280;9686;48.832;9.126;2023-02-12T02:29:20;100098.22;;;9.83;93.80
19108;BME280;9686;48.832;9.126;2023-02-12T02:31:58;100100.59;;;9.74;95.33
19108;BME280;9686;48.832;9.126;2023-02-12T02:34:38;100099.56;;;9.68;95.97
19108;BME280;9686;48.832;9.126;2023-02-12T02:37:14;100094.31;;;9.66;96.69
19108;BME280;9686;48.832;9.126;2023-02-12T02:39:56;100097.16;;;9.75;97.53
19108;BME280;9686;48.832;9.126;2023-02-12T02:42:38;100096.28;;;9.75;97.53
19108;BME280;9686;48.832;9.126;2023-02-12T02:47:57;100100.63;;;9.76;97.62
19108;BME280;9686;48.832;9.126;2023-02-12T02:50:26;100097.91;;;9.71;99.24
19108;BME280;9686;48.832;9.126;2023-02-12T02:52:58;100110.59;;;9.61;100.00
19108;BME280;9686;48.832;9.126;2023-02-12T02:55:29;100106.06;;;9.53;100.00
19108;BME280;9686;48.832;9.126;2023-02-12T02:58:00;100102.59;;;9.53;100.00
19108;BME280;9686;48.832;9.126;2023-02-12T03:00:34;100100.16;;;9.59;100.00
19108;BME280;9686;48.832;9.126;2023-02-12T03:06:26;100096.75;;;9.62;100.00
19108;BME280;9686;48.832;9.126;2023-02-12T03:08:57;100102.97;;;9.37;100.00
19108;BME280;9686;48.832;9.126;2023-02-12T03:11:27;100105.69;;;9.40;100.00
19108;BME280;9686;48.832;9.126;2023-02-12T03:16:30;100094.72;;;9.81;97.84
19108;BME280;9686;48.832;9.126;2023-02-12T03:19:09;100102.44;;;9.78;97.91
19108;BME280;9686;48.832;9.126;2023-02-12T03:21:55;100108.38;;;9.73;98.24
19108;BME280;9686;48.832;9.126;2023-02-12T03:24:27;100111.38;;;9.56;100.00
19108;BME280;9686;48.832;9.126;2023-02-12T03:26:59;100112.97;;;9.51;100.00
19108;BME280;9686;48.832;9.126;2023-02-12T03:29:27;100113.63;;;9.44;100.00
19108;BME280;9686;48.832;9.126;2023-02-12T03:37:57;100108.03;;;9.32;100.00
19108;BME280;9686;48.832;9.126;2023-02-12T03:40:50;100107.03;;;9.27;100.00
19108;BME280;9686;48.832;9.126;2023-02-12T03:43:49;100099.72;;;9.44;100.00
19108;BME280;9686;48.832;9.126;2023-02-12T03:49:00;100100.88;;;9.53;100.00
19108;BME280;9686;48.832;9.126;2023-02-12T03:51:36;100110.59;;;9.61;100.00
19108;BME280;9686;48.832;9.126;2023-02-12T03:54:03;100102.72;;;9.57;100.00
19108;BME280;9686;48.832;9.126;2023-02-12T03:57:11;100107.16;;;9.62;100.00
19108;BME280;9686;48.832;9.126;2023-02-12T03:59:39;100108.63;;;9.52;100.00
19108;BME280;9686;48.832;9.126;2023-02-12T04:02:06;100110.16;;;9.44;100.00
19108;BME280;9686;48.832;9.126;2023-02-12T04:04:32;100110.75;;;9.35;100.00
19108;BME280;9686;48.832;9.126;2023-02-12T04:06:58;100118.59;;;9.37;100.00
19108;BME280;9686;48.832;9.126;2023-02-12T04:09:25;100117.00;;;9.40;100.00
19108;BME280;9686;48.832;9.126;2023-02-12T04:14:45;100115.31;;;9.42;100.00
19108;BME280;9686;48.832;9.126;2023-02-12T04:17:27;100119.81;;;9.48;100.00
19108;BME280;9686;48.832;9.126;2023-02-12T04:25:20;100124.25;;;9.22;100.00
19108;BME280;9686;48.832;9.126;2023-02-12T04:27:58;100121.59;;;9.20;100.00
19108;BME280;9686;48.832;9.126;2023-02-12T04:30:37;100129.19;;;9.13;100.00
19108;BME280;9686;48.832;9.126;2023-02-12T04:33:07;100134.56;;;9.19;100.00
19108;BME280;9686;48.832;9.126;2023-02-12T04:40:30;100144.13;;;9.20;100.00
19108;BME280;9686;48.832;9.126;2023-02-12T04:42:55;100138.97;;;9.21;100.00
19108;BME280;9686;48.832;9.126;2023-02-12T04:45:30;100144.97;;;9.19;100.00
19108;BME280;9686;48.832;9.126;2023-02-12T04:47:57;100142.53;;;9.25;100.00
19108;BME280;9686;48.832;9.126;2023-02-12T04:50:23;100141.25;;;9.39;100.00
19108;BME280;9686;48.832;9.126;2023-02-12T04:52:48;100140.50;;;9.43;100.00
19108;BME280;9686;48.832;9.126;2023-02-12T04:55:14;100147.22;;;9.37;100.00
19108;BME280;9686;48.832;9.126;2023-02-12T04:57:40;100143.50;;;9.28;100.00
19108;BME280;9686;48.832;9.126;2023-02-12T05:00:06;100138.97;;;9.21;100.00
19108;BME280;9686;48.832;9.126;2023-02-12T05:02:33;100143.19;;;9.18;100.00
19108;BME280;9686;48.832;9.126;2023-02-12T05:04:58;100140.91;;;9.28;100.00
19108;BME280;9686;48.832;9.126;2023-02-12T05:07:23;100140.88;;;9.27;100.00
19108;BME280;9686;48.832;9.126;2023-02-12T05:09:49;100141.72;;;9.26;100.00
19108;BME280;9686;48.832;9.126;2023-02-12T05:12:14;100138.75;;;9.42;100.00
19108;BME280;9686;48.832;9.126;2023-02-12T05:14:39;100143.28;;;9.49;100.00
19108;BME280;9686;48.832;9.126;2023-02-12T05:17:04;100139.72;;;9.17;100.00
19108;BME280;9686;48.832;9.126;2023-02-12T05:19:30;100140.59;;;9.18;100.00
19108;BME280;9686;48.832;9.126;2023-02-12T05:21:55;100142.13;;;9.11;100.00
19108;BME280;9686;48.832;9.126;2023-02-12T05:24:20;100129.63;;;9.28;100.00
19108;BME280;9686;48.832;9.126;2023-02-12T05:26:48;100135.44;;;9.19;100.00
19108;BME280;9686;48.832;9.126;2023-02-12T05:29:14;100129.25;;;9.16;100.00
19108;BME280;9686;48.832;9.126;2023-02-12T05:31:39;100135.72;;;9.28;100.00
19108;BME280;9686;48.832;9.126;2023-02-12T05:34:09;100133.31;;;9.36;100.00
19108;BME280;9686;48.832;9.126;2023-02-12T05:36:35;100129.25;;;9.44;100.00
19108;BME280;9686;48.832;9.126;2023-02-12T05:39:00;100137.16;;;9.19;100.00
19108;BME280;9686;48.832;9.126;2023-02-12T05:41:25;100140.13;;;9.03;100.00
19108;BME280;9686;48.832;9.126;2023-02-12T05:43:51;100142.75;;;9.04;100.00
19108;BME280;9686;48.832;9.126;2023-02-12T05:46:18;100140.94;;;9.02;100.00
19108;BME280;9686;48.832;9.126;2023-02-12T05:48:44;100142.72;;;9.03;100.00
19108;BME280;9686;48.832;9.126;2023-02-12T05:51:12;100148.97;;;9.09;100.00
19108;BME280;9686;48.832;9.126;2023-02-12T05:53:39;100147.63;;;9.20;100.00
19108;BME280;9686;48.832;9.126;2023-02-12T05:56:10;100146.28;;;9.35;100.00
19108;BME280;9686;48.832;9.126;2023-02-12T05:58:36;100139.78;;;9.49;100.00
19108;BME280;9686;48.832;9.126;2023-02-12T06:01:01;100139.03;;;9.53;98.30
19108;BME280;9686;48.832;9.126;2023-02-12T06:03:27;100139.41;;;9.37;100.00
19108;BME280;9686;48.832;9.126;2023-02-12T06:05:52;100136.59;;;9.29;100.00
19108;BME280;9686;48.832;9.126;2023-02-12T06:08:18;100144.94;;;9.17;100.00
19108;BME280;9686;48.832;9.126;2023-02-12T06:10:43;100137.34;;;9.25;100.00
19108;BME280;9686;48.832;9.126;2023-02-12T06:13:08;100136.38;;;9.21;100.00
19108;BME280;9686;48.832;9.126;2023-02-12T06:15:36;100141.97;;;9.35;99.69
19108;BME280;9686;48.832;9.126;2023-02-12T06:18:02;100141.13;;;9.36;99.33
19108;BME280;9686;48.832;9.126;2023-02-12T06:20:27;100138.34;;;9.30;99.65
19108;BME280;9686;48.832;9.126;2023-02-12T06:22:53;100137.59;;;9.34;98.60
19108;BME280;9686;48.832;9.126;2023-02-12T06:25:18;100132.94;;;9.22;100.00
19108;BME280;9686;48.832;9.126;2023-02-12T06:27:43;100144.94;;;9.17;100.00
19108;BME280;9686;48.832;9.126;2023-02-12T06:30:09;100153.34;;;9.10;100.00
19108;BME280;9686;48.832;9.126;2023-02-12T06:32:35;100143.25;;;9.19;100.00
19108;BME280;9686;48.832;9.126;2023-02-12T06:35:00;100154.44;;;9.17;100.00
19108;BME280;9686;48.832;9.126;2023-02-12T06:37:25;100157.19;;;9.21;99.58
19108;BME280;9686;48.832;9.126;2023-02-12T06:39:51;100157.88;;;9.16;100.00
19108;BME280;9686;48.832;9.126;2023-02-12T06:42:16;100162.63;;;9.29;98.70
19108;BME280;9686;48.832;9.126;2023-02-12T06:44:41;100156.25;;;9.19;99.34
19108;BME280;9686;48.832;9.126;2023-02-12T06:47:07;100163.81;;;9.39;97.46
19108;BME280;9686;48.832;9.126;2023-02-12T06:49:32;100168.66;;;9.28;99.12
19108;BME280;9686;48.832;9.126;2023-02-12T06:51:57;100165.34;;;9.34;100.00
19108;BME280;9686;48.832;9.126;2023-02-12T06:54:22;100174.31;;;9.42;99.48
19108;BME280;9686;48.832;9.126;2023-02-12T06:56:48;100176.78;;;9.37;99.48
19108;BME280;9686;48.832;9.126;2023-02-12T06:59:15;100178.31;;;9.32;99.40
19108;BME280;9686;48.832;9.126;2023-02-12T07:01:40;100185.06;;;9.25;99.73
19108;BME280;9686;48.832;9.126;2023-02-12T07:04:06;100176.69;;;9.36;98.88
19108;BME280;9686;48.832;9.126;2023-02-12T07:06:34;100185.34;;;9.35;98.47
19108;BME280;9686;48.832;9.126;2023-02-12T07:09:00;100175.31;;;9.47;97.70
19108;BME280;9686;48.832;9.126;2023-02-12T07:11:28;100178.56;;;9.40;97.53
19108;BME280;9686;48.832;9.126;2023-02-12T07:13:53;100173.41;;;9.41;97.03
19108;BME280;9686;48.832;9.126;2023-02-12T07:16:19;100183.66;;;9.37;98.75
19108;BME280;9686;48.832;9.126;2023-02-12T07:18:45;100183.53;;;9.32;100.00
19108;BME280;9686;48.832;9.126;2023-02-12T07:21:12;100176.09;;;9.44;98.13
19108;BME280;9686;48.832;9.126;2023-02-12T07:23:38;100188.63;;;9.57;97.06
19108;BME280;9686;48.832;9.126;2023-02-12T07:26:07;100188.44;;;9.80;95.05
19108;BME280;9686;48.832;9.126;2023-02-12T07:28:33;100182.59;;;9.88;93.25
19108;BME280;9686;48.832;9.126;2023-02-12T07:31:09;100187.63;;;9.82;93.70
19108;BME280;9686;48.832;9.126;2023-02-12T07:33:36;100180.66;;;9.81;93.39
19108;BME280;9686;48.832;9.126;2023-02-12T07:36:04;100181.88;;;9.93;91.19
19108;BME280;9686;48.832;9.126;2023-02-12T07:38:29;100181.72;;;9.88;91.43
19108;BME280;9686;48.832;9.126;2023-02-12T07:40:55;100182.13;;;9.72;95.44
19108;BME280;9686;48.832;9.126;2023-02-12T07:43:23;100185.19;;;9.88;90.21
19108;BME280;9686;48.832;9.126;2023-02-12T07:45:48;100183.69;;;9.95;90.37
19108;BME280;9686;48.832;9.126;2023-02-12T07:48:14;100184.47;;;9.93;90.74
19108;BME280;9686;48.832;9.126;2023-02-12T07:50:39;100177.47;;;9.90;90.85
19108;BME280;9686;48.832;9.126;2023-02-12T07:53:04;100184.56;;;9.96;92.37
19108;BME280;9686;48.832;9.126;2023-02-12T07:55:30;100183.75;;;9.98;90.96
19108;BME280;9686;48.832;9.126;2023-02-12T07:57:55;100175.81;;;9.94;91.39
19108;BME280;9686;48.832;9.126;2023-02-12T08:00:21;100176.09;;;10.04;90.65
19108;BME280;9686;48.832;9.126;2023-02-12T08:02:52;100179.84;;;10.14;90.93
19108;BME280;9686;48.832;9.126;2023-02-12T08:05:18;100181.94;;;10.26;88.04
19108;BME280;9686;48.832;9.126;2023-02-12T08:07:44;100180.25;;;10.28;87.64
19108;BME280;9686;48.832;9.126;2023-02-12T08:10:10;100178.97;;;10.43;86.88
19108;BME280;9686;48.832;9.126;2023-02-12T08:12:35;100177.63;;;10.26;87.76
19108;BME280;9686;48.832;9.126;2023-02-12T08:15:00;100172.97;;;10.47;84.13
19108;BME280;9686;48.832;9.126;2023-02-12T08:17:26;100175.31;;;10.38;85.74
19108;BME280;9686;48.832;9.126;2023-02-12T08:19:51;100174.19;;;10.29;86.53
19108;BME280;9686;48.832;9.126;2023-02-12T08:22:16;100165.16;;;10.47;84.95
19108;BME280;9686;48.832;9.126;2023-02-12T08:24:43;100167.84;;;10.50;86.29
19108;BME280;9686;48.832;9.126;2023-02-12T08:27:08;100165.22;;;10.50;84.62
19108;BME280;9686;48.832;9.126;2023-02-12T08:29:34;100171.16;;;10.45;86.78
19108;BME280;9686;48.832;9.126;2023-02-12T08:32:01;100166.28;;;10.59;85.45
19108;BME280;9686;48.832;9.126;2023-02-12T08:34:32;100175.88;;;10.60;86.58
19108;BME280;9686;48.832;9.126;2023-02-12T08:36:58;100171.94;;;10.75;82.62
19108;BME280;9686;48.832;9.126;2023-02-12T08:39:26;100177.84;;;10.68;84.71
19108;BME280;9686;48.832;9.126;2023-02-12T08:41:56;100172.94;;;10.80;83.55
19108;BME280;9686;48.832;9.126;2023-02-12T08:44:21;100177.38;;;10.85;81.51
19108;BME280;9686;48.832;9.126;2023-02-12T08:46:49;100177.09;;;10.72;82.75
19108;BME280;9686;48.832;9.126;2023-02-12T08:49:17;100185.69;;;10.68;83.63
19108;BME280;9686;48.832;9.126;2023-02-12T08:51:45;100179.84;;;10.78;81.41
19108;BME280;9686;48.832;9.126;2023-02-12T08:54:15;100184.91;;;10.72;85.53
19108;BME280;9686;48.832;9.126;2023-02-12T08:56:41;100182.22;;;10.69;84.28
19108;BME280;9686;48.832;9.126;2023-02-12T08:59:07;100178.38;;;10.90;82.14
19108;BME280;9686;48.832;9.126;2023-02-12T09:01:35;100179.19;;;10.87;83.15
19108;BME280;9686;48.832;9.126;2023-02-12T09:04:09;100178.66;;;11.00;82.86
19108;BME280;9686;48.832;9.126;2023-02-12T09:06:37;100186.34;;;10.94;83.33
19108;BME280;9686;48.832;9.126;2023-02-12T09:09:02;100192.47;;;10.96;83.11
19108;BME280;9686;48.832;9.126;2023-02-12T09:11:28;100188.28;;;11.03;83.98
19108;BME280;9686;48.832;9.126;2023-02-12T09:13:59;100195.31;;;11.07;82.76
19108;BME280;9686;48.832;9.126;2023-02-12T09:16:26;100192.19;;;11.20;80.92
19108;BME280;9686;48.832;9.126;2023-02-12T09:18:52;100193.06;;;11.21;82.11
19108;BME280;9686;48.832;9.126;2023-02-12T09:21:18;100193.34;;;11.34;81.69
19108;BME280;9686;48.832;9.126;2023-02-12T09:23:44;100184.56;;;11.31;80.46
19108;BME280;9686;48.832;9.126;2023-02-12T09:26:12;100187.03;;;11.23;81.11
19108;BME280;9686;48.832;9.126;2023-02-12T09:28:39;100182.91;;;11.34;80.58
19108;BME280;9686;48.832;9.126;2023-02-12T09:31:16;100177.69;;;11.34;81.62
19108;BME280;9686;48.832;9.126;2023-02-12T09:33:42;100181.25;;;11.38;80.46
19108;BME280;9686;48.832;9.126;2023-02-12T09:36:11;100181.44;;;11.46;82.27
19108;BME280;9686;48.832;9.126;2023-02-12T09:38:37;100183.09;;;11.43;81.01
19108;BME280;9686;48.832;9.126;2023-02-12T09:46:47;100182.06;;;11.74;79.60
19108;BME280;9686;48.832;9.126;2023-02-12T09:52:17;100181.88;;;12.06;79.07
19108;BME280;9686;48.832;9.126;2023-02-12T09:54:43;100179.28;;;12.08;78.29
19108;BME280;9686;48.832;9.126;2023-02-12T09:57:32;100184.56;;;12.11;80.39
19108;BME280;9686;48.832;9.126;2023-02-12T10:00:10;100180.09;;;12.05;79.07
19108;BME280;9686;48.832;9.126;2023-02-12T10:02:39;100181.28;;;12.21;81.15
19108;BME280;9686;48.832;9.126;2023-02-12T10:05:14;100189.34;;;12.31;78.52
19108;BME280;9686;48.832;9.126;2023-02-12T10:10:52;100186.63;;;12.25;79.24
19108;BME280;9686;48.832;9.126;2023-02-12T10:13:26;100184.00;;;12.25;79.50
19108;BME280;9686;48.832;9.126;2023-02-12T10:16:00;100183.41;;;12.42;79.75
19108;BME280;9686;48.832;9.126;2023-02-12T10:18:47;100186.09;;;12.46;79.85
19108;BME280;9686;48.832;9.126;2023-02-12T10:21:28;100186.22;;;12.51;80.03
19108;BME280;9686;48.832;9.126;2023-02-12T10:27:06;100179.75;;;12.80;77.28
19108;BME280;9686;48.832;9.126;2023-02-12T10:29:37;100178.91;;;12.83;76.35
19108;BME280;9686;48.832;9.126;2023-02-12T10:32:08;100177.25;;;12.88;77.56
19108;BME280;9686;48.832;9.126;2023-02-12T10:34:36;100170.63;;;12.57;79.31
19108;BME280;9686;48.832;9.126;2023-02-12T10:37:10;100173.81;;;12.42;81.05
19108;BME280;9686;48.832;9.126;2023-02-12T10:39:46;100172.44;;;12.62;80.20
19108;BME280;9686;48.832;9.126;2023-02-12T10:42:39;100174.22;;;12.63;80.41
19108;BME280;9686;48.832;9.126;2023-02-12T10:45:15;100173.88;;;12.45;84.03
19108;BME280;9686;48.832;9.126;2023-02-12T10:47:41;100165.47;;;12.15;84.04
19108;BME280;9686;48.832;9.126;2023-02-12T10:50:19;100166.47;;;12.21;83.70
19108;BME280;9686;48.832;9.126;2023-02-12T10:52:50;100164.25;;;12.43;86.55
19108;BME280;9686;48.832;9.126;2023-02-12T10:55:24;100156.34;;;12.40;85.65
19108;BME280;9686;48.832;9.126;2023-02-12T10:57:50;100163.47;;;12.48;84.82
19108;BME280;9686;48.832;9.126;2023-02-12T11:05:34;100160.69;;;12.39;84.07
19108;BME280;9686;48.832;9.126;2023-02-12T11:08:00;100156.44;;;12.46;84.85
19108;BME280;9686;48.832;9.126;2023-02-12T11:10:39;100149.59;;;12.51;83.77
19108;BME280;9686;48.832;9.126;2023-02-12T11:13:24;100154.03;;;12.56;84.13
19108;BME280;9686;48.832;9.126;2023-02-12T11:15:50;100154.72;;;12.46;84.65
19108;BME280;9686;48.832;9.126;2023-02-12T11:18:35;100151.41;;;12.55;83.51
19108;BME280;9686;48.832;9.126;2023-02-12T11:21:09;100150.56;;;12.57;83.10
19108;BME280;9686;48.832;9.126;2023-02-12T11:23:41;100141.31;;;12.78;81.52
19108;BME280;9686;48.832;9.126;2023-02-12T11:28:57;100147.72;;;12.96;83.13
19108;BME280;9686;48.832;9.126;2023-02-12T11:31:28;100142.31;;;12.86;79.93
19108;BME280;9686;48.832;9.126;2023-02-12T11:34:20;100142.41;;;12.92;81.54
19108;BME280;9686;48.832;9.126;2023-02-12T11:36:50;100138.13;;;12.97;78.78
19108;BME280;9686;48.832;9.126;2023-02-12T11:39:31;100138.88;;;12.90;80.45
19108;BME280;9686;48.832;9.126;2023-02-12T11:42:19;100136.38;;;12.97;77.92
19108;BME280;9686;48.832;9.126;2023-02-12T11:44:51;100135.53;;;13.00;78.89
19108;BME280;9686;48.832;9.126;2023-02-12T11:47:26;100136.63;;;13.13;80.31
19108;BME280;9686;48.832;9.126;2023-02-12T11:52:26;100128.97;;;13.25;77.94
19108;BME280;9686;48.832;9.126;2023-02-12T11:54:55;100134.16;;;13.22;76.84
19108;BME280;9686;48.832;9.126;2023-02-12T11:57:48;100128.16;;;13.29;75.21
19108;BME280;9686;48.832;9.126;2023-02-12T12:00:18;100128.28;;;13.38;75.52
19108;BME280;9686;48.832;9.126;2023-02-12T12:02:52;100133.63;;;13.46;74.61
19108;BME280;9686;48.832;9.126;2023-02-12T12:05:20;100122.41;;;13.54;77.68
19108;BME280;9686;48.832;9.126;2023-02-12T12:07:55;100121.53;;;13.55;74.49
19108;BME280;9686;48.832;9.126;2023-02-12T12:10:31;100123.66;;;13.87;76.69
19108;BME280;9686;48.832;9.126;2023-02-12T12:13:02;100119.50;;;14.06;72.88
19108;BME280;9686;48.832;9.126;2023-02-12T12:15:37;100119.53;;;14.07;72.67
19108;BME280;9686;48.832;9.126;2023-02-12T12:18:31;100110.59;;;13.90;70.93
19108;BME280;9686;48.832;9.126;2023-02-12T12:21:54;100113.91;;;13.75;70.19
19108;BME280;9686;48.832;9.126;2023-02-12T12:24:35;100114.88;;;13.83;70.30
19108;BME280;9686;48.832;9.126;2023-02-12T12:27:47;100107.66;;;13.64;73.15
19108;BME280;9686;48.832;9.126;2023-02-12T12:30:35;100110.34;;;13.70;73.05
19108;BME280;9686;48.832;9.126;2023-02-12T12:33:05;100114.88;;;13.82;72.09
19108;BME280;9686;48.832;9.126;2023-02-12T12:35:50;100110.47;;;13.79;71.86
19108;BME280;9686;48.832;9.126;2023-02-12T12:38:55;100111.50;;;13.95;70.87
19108;BME280;9686;48.832;9.126;2023-02-12T12:41:33;100106.19;;;13.87;71.54
19108;BME280;9686;48.832;9.126;2023-02-12T12:49:47;100101.00;;;13.94;72.43
19108;BME280;9686;48.832;9.126;2023-02-12T13:05:34;100078.63;;;13.49;75.25
19108;BME280;9686;48.832;9.126;2023-02-12T13:08:11;100077.97;;;13.67;74.37
19108;BME280;9686;48.832;9.126;2023-02-12T13:11:02;100068.31;;;13.61;74.18
19108;BME280;9686;48.832;9.126;2023-02-12T13:13:37;100061.97;;;13.44;76.30
19108;BME280;9686;48.832;9.126;2023-02-12T13:16:25;100061.16;;;13.49;77.54
19108;BME280;9686;48.832;9.126;2023-02-12T13:19:56;100062.38;;;13.79;73.65
19108;BME280;9686;48.832;9.126;2023-02-12T13:22:10;100060.53;;;13.70;75.13
19108;BME280;9686;48.832;9.126;2023-02-12T13:24:49;100070.13;;;13.68;74.89
19108;BME280;9686;48.832;9.126;2023-02-12T13:27:22;100052.66;;;13.69;73.85
19108;BME280;9686;48.832;9.126;2023-02-12T13:29:58;100053.16;;;13.36;75.57
19108;BME280;9686;48.832;9.126;2023-02-12T13:32:33;100050.72;;;13.52;75.85
19108;BME280;9686;48.832;9.126;2023-02-12T13:35:00;100051.81;;;13.71;75.00
19108;BME280;9686;48.832;9.126;2023-02-12T13:37:41;100050.88;;;13.63;76.96
19108;BME280;9686;48.832;9.126;2023-02-12T13:40:22;100056.00;;;13.54;75.58
19108;BME280;9686;48.832;9.126;2023-02-12T13:45:47;100038.59;;;13.61;76.37
19108;BME280;9686;48.832;9.126;2023-02-12T13:48:48;100035.09;;;13.60;76.60
19108;BME280;9686;48.832;9.126;2023-02-12T13:51:29;100038.63;;;13.64;75.49
19108;BME280;9686;48.832;9.126;2023-02-12T13:57:00;100037.78;;;13.65;75.73
19108;BME280;9686;48.832;9.126;2023-02-12T14:01:56;100028.19;;;13.67;75.96
19108;BME280;9686;48.832;9.126;2023-02-12T14:04:34;100032.47;;;13.58;75.94
19108;BME280;9686;48.832;9.126;2023-02-12T14:07:05;100021.47;;;13.93;74.28
19108;BME280;9686;48.832;9.126;2023-02-12T14:09:34;100031.94;;;13.92;74.11
19108;BME280;9686;48.832;9.126;2023-02-12T14:12:04;100025.78;;;13.86;73.60
19108;BME280;9686;48.832;9.126;2023-02-12T14:14:46;100026.63;;;13.82;73.48
19108;BME280;9686;48.832;9.126;2023-02-12T14:27:46;100012.69;;;13.89;71.47
19108;BME280;9686;48.832;9.126;2023-02-12T14:38:01;100007.28;;;13.74;74.49
19108;BME280;9686;48.832;9.126;2023-02-12T14:43:02;100006.44;;;13.78;73.30
19108;BME280;9686;48.832;9.126;2023-02-12T14:45:33;100004.81;;;13.86;72.57
19108;BME280;9686;48.832;9.126;2023-02-12T14:48:00;100004.63;;;13.71;72.52
19108;BME280;9686;48.832;9.126;2023-02-12T14:50:46;100006.50;;;13.81;71.68
19108;BME280;9686;48.832;9.126;2023-02-12T14:53:34;100007.28;;;13.73;72.52
19108;BME280;9686;48.832;9.126;2023-02-12T14:56:02;99997.66;;;13.72;73.85
19108;BME280;9686;48.832;9.126;2023-02-12T14:58:28;99996.78;;;13.71;73.23
19108;BME280;9686;48.832;9.126;2023-02-12T15:00:58;100003.50;;;13.46;75.93
19108;BME280;9686;48.832;9.126;2023-02-12T15:03:37;100004.59;;;13.67;73.91
19108;BME280;9686;48.832;9.126;2023-02-12T15:06:20;100006.25;;;13.58;74.54
19108;BME280;9686;48.832;9.126;2023-02-12T15:08:57;100005.47;;;13.69;73.72
19108;BME280;9686;48.832;9.126;2023-02-12T15:14:26;100007.88;;;13.47;74.08